Time;durP1;ratioP1;P1;durP2;ratioP2;P2;SDS_P1;SDS_P2;PMS_P1;PMS_P2;Temp;Humidity;BMP_temperature;BMP_pressure;BME280_temperature;BME280_humidity;BME280_pressure;Samples;Min_cycle;Max_cycle;Signal;HPM_P1;HPM_P2
2022/11/26 00:00:17;;;;;;;34.20;16.70;;;8.30;99.90;;;;;;5010152;28;20060;-65
2022/11/26 00:02:43;;;;;;;43.00;17.55;;;8.20;99.90;;;;;;5012861;28;20073;-65
2022/11/26 00:05:10;;;;;;;40.55;17.92;;;8.20;99.90;;;;;;4996157;28;20069;-65
2022/11/26 00:07:36;;;;;;;37.60;17.20;;;8.20;99.90;;;;;;5011276;28;20049;-65
2022/11/26 00:10:02;;;;;;;41.47;16.88;;;8.20;99.90;;;;;;5028687;28;20080;-64
2022/11/26 00:12:30;;;;;;;40.13;17.13;;;8.20;99.90;;;;;;5012605;28;20064;-66
2022/11/26 00:14:56;;;;;;;;;;;8.10;99.90;;;;;;4996530;28;20497;-65
2022/11/26 00:17:22;;;;;;;38.03;17.77;;;8.20;99.90;;;;;;5025346;28;19913;-66
2022/11/26 00:19:47;;;;;;;36.25;16.92;;;8.20;99.90;;;;;;5012050;28;20038;-65
2022/11/26 00:22:27;;;;;;;39.28;16.55;;;8.10;99.90;;;;;;5013274;28;20045;-66
2022/11/26 00:24:53;;;;;;;36.45;17.15;;;8.10;99.90;;;;;;4980323;28;20056;-66
2022/11/26 00:27:19;;;;;;;40.67;17.17;;;8.10;99.90;;;;;;5012039;28;20046;-66
2022/11/26 00:29:45;;;;;;;40.78;15.85;;;8.10;99.90;;;;;;5012883;28;20158;-67
2022/11/26 00:32:18;;;;;;;36.35;16.08;;;8.00;99.90;;;;;;5029150;28;20049;-65
2022/11/26 00:34:44;;;;;;;41.72;17.00;;;8.10;99.90;;;;;;4995109;28;20069;-65
2022/11/26 00:37:27;;;;;;;41.60;18.05;;;8.10;99.90;;;;;;5012553;28;20481;-66
2022/11/26 00:39:53;;;;;;;39.20;17.00;;;8.00;99.90;;;;;;5025022;28;20144;-65
2022/11/26 00:42:19;;;;;;;41.95;16.40;;;8.00;99.90;;;;;;4992995;28;20041;-66
2022/11/26 00:44:45;;;;;;;41.17;16.77;;;8.00;99.90;;;;;;4995783;28;20048;-65
2022/11/26 00:47:11;;;;;;;41.60;16.27;;;8.00;99.90;;;;;;5012866;28;20046;-65
2022/11/26 00:49:36;;;;;;;38.65;16.63;;;8.00;99.90;;;;;;5028872;28;20045;-66
2022/11/26 00:52:03;;;;;;;37.70;16.38;;;8.00;99.90;;;;;;4998634;28;20045;-64
2022/11/26 00:54:28;;;;;;;36.70;15.40;;;7.90;99.90;;;;;;4996184;28;20585;-66
2022/11/26 00:56:54;;;;;;;36.03;15.90;;;7.90;99.90;;;;;;4991516;28;20053;-65
2022/11/26 00:59:22;;;;;;;35.17;16.10;;;7.80;99.90;;;;;;5015515;28;20042;-65
2022/11/26 01:01:48;;;;;;;31.00;15.68;;;7.80;99.90;;;;;;5026708;28;20698;-67
2022/11/26 01:04:14;;;;;;;37.92;16.40;;;7.90;99.90;;;;;;4994861;28;20480;-66
2022/11/26 01:06:42;;;;;;;36.47;16.70;;;7.80;99.90;;;;;;5027586;28;21331;-65
2022/11/26 01:09:26;;;;;;;36.97;15.65;;;7.80;99.90;;;;;;5026327;28;20080;-68
2022/11/26 01:11:52;;;;;;;38.38;17.90;;;7.80;99.90;;;;;;5011187;28;20049;-67
2022/11/26 01:14:18;;;;;;;32.85;16.00;;;7.70;99.90;;;;;;4991236;28;20103;-68
2022/11/26 01:16:44;;;;;;;37.45;15.98;;;7.70;99.90;;;;;;5010269;28;20141;-67
2022/11/26 01:19:11;;;;;;;33.03;16.13;;;7.70;99.90;;;;;;5011026;28;20053;-68
2022/11/26 01:21:38;;;;;;;41.70;17.77;;;7.70;99.90;;;;;;5009605;28;20049;-68
2022/11/26 01:24:04;;;;;;;38.03;16.65;;;7.60;99.90;;;;;;5010922;28;20465;-68
2022/11/26 01:26:50;;;;;;;40.13;16.65;;;7.60;99.90;;;;;;5028278;28;20099;-68
2022/11/26 01:29:16;;;;;;;41.45;17.58;;;7.50;99.90;;;;;;5008642;28;20050;-66
2022/11/26 01:31:42;;;;;;;39.75;16.63;;;7.60;99.90;;;;;;5009823;28;20111;-67
2022/11/26 01:34:08;;;;;;;38.72;16.73;;;7.50;99.90;;;;;;5022970;28;20053;-66
2022/11/26 01:36:35;;;;;;;45.05;18.23;;;7.50;99.90;;;;;;5011888;28;20293;-67
2022/11/26 01:39:18;;;;;;;44.53;17.67;;;7.50;99.90;;;;;;5028240;28;20049;-67
2022/11/26 01:41:53;;;;;;;35.03;17.27;;;7.50;99.90;;;;;;5025631;28;20052;-66
2022/11/26 01:44:24;;;;;;;43.42;16.85;;;7.40;99.90;;;;;;5023762;28;20118;-67
2022/11/26 01:46:50;;;;;;;38.97;17.15;;;7.40;99.90;;;;;;5022064;28;20045;-67
2022/11/26 01:49:40;;;;;;;37.83;17.67;;;7.40;99.90;;;;;;5020000;28;20559;-67
2022/11/26 01:52:10;;;;;;;44.50;18.23;;;7.40;99.90;;;;;;5028564;28;20125;-67
2022/11/26 01:54:36;;;;;;;39.50;16.95;;;7.40;99.90;;;;;;5011552;28;20164;-66
2022/11/26 01:57:11;;;;;;;44.70;17.85;;;7.40;99.90;;;;;;5011620;28;20049;-66
2022/11/26 01:59:42;;;;;;;42.47;17.73;;;7.30;99.90;;;;;;5022918;28;20049;-66
2022/11/26 02:02:10;;;;;;;37.38;17.45;;;7.40;99.90;;;;;;5012238;28;20132;-67
2022/11/26 02:04:42;;;;;;;33.33;17.08;;;7.30;99.90;;;;;;5007644;28;20038;-68
2022/11/26 02:07:08;;;;;;;41.30;16.38;;;7.30;99.90;;;;;;5020863;28;20061;-68
2022/11/26 02:09:34;;;;;;;44.40;17.05;;;7.30;99.90;;;;;;5024056;28;20095;-67
2022/11/26 02:12:00;;;;;;;49.40;18.15;;;7.30;99.90;;;;;;4994185;28;20092;-67
2022/11/26 02:14:37;;;;;;;40.28;17.13;;;7.30;99.90;;;;;;5012348;28;20049;-66
2022/11/26 02:17:09;;;;;;;41.78;17.27;;;7.30;99.90;;;;;;4988591;28;20046;-65
2022/11/26 02:19:56;;;;;;;37.63;16.70;;;7.30;99.90;;;;;;5028478;28;20049;-68
2022/11/26 02:22:39;;;;;;;47.03;17.67;;;7.20;99.90;;;;;;5010401;28;20056;-66
2022/11/26 02:25:30;;;;;;;49.92;18.20;;;7.20;99.90;;;;;;5027659;28;20510;-67
2022/11/26 02:28:23;;;;;;;44.10;16.77;;;7.20;99.90;;;;;;5008942;28;20052;-66
2022/11/26 02:31:12;;;;;;;36.63;16.73;;;7.30;99.90;;;;;;5026480;28;20053;-67
2022/11/26 02:33:56;;;;;;;35.05;16.10;;;7.20;99.90;;;;;;4993482;28;20041;-66
2022/11/26 02:36:30;;;;;;;39.13;16.92;;;7.30;99.90;;;;;;5027728;28;20080;-66
2022/11/26 02:38:55;;;;;;;39.10;16.15;;;7.30;99.90;;;;;;4994712;28;20049;-66
2022/11/26 02:41:21;;;;;;;42.00;17.23;;;7.30;99.90;;;;;;5008244;28;20538;-67
2022/11/26 02:43:47;;;;;;;39.72;17.27;;;7.30;99.90;;;;;;5013616;28;20494;-67
2022/11/26 02:46:15;;;;;;;44.17;16.83;;;7.30;99.90;;;;;;5027802;28;20079;-67
2022/11/26 02:48:42;;;;;;;;;;;7.30;99.90;;;;;;5028305;28;20053;-66
2022/11/26 02:51:14;;;;;;;34.90;16.08;;;7.30;99.90;;;;;;5026447;28;20147;-66
2022/11/26 02:53:40;;;;;;;40.35;15.57;;;7.30;99.90;;;;;;5023330;28;20049;-67
2022/11/26 02:56:12;;;;;;;45.17;16.75;;;7.40;99.90;;;;;;4994209;28;20060;-67
2022/11/26 02:58:38;;;;;;;40.92;16.73;;;7.30;99.90;;;;;;5021368;28;20099;-67
2022/11/26 03:01:09;;;;;;;39.63;16.30;;;7.30;99.90;;;;;;5026694;28;20049;-66
2022/11/26 03:03:45;;;;;;;42.20;17.70;;;7.40;99.90;;;;;;5021340;28;20038;-67
2022/11/26 03:06:12;;;;;;;42.15;17.30;;;7.30;99.90;;;;;;5010071;28;20486;-67
2022/11/26 03:08:37;;;;;;;40.58;16.55;;;7.30;99.90;;;;;;4992865;28;20052;-66
2022/11/26 03:11:03;;;;;;;40.53;17.38;;;7.30;99.90;;;;;;5024967;28;20041;-66
2022/11/26 03:13:29;;;;;;;38.17;16.73;;;7.30;99.90;;;;;;5025694;28;20096;-66
2022/11/26 03:15:55;;;;;;;39.90;16.98;;;7.30;99.90;;;;;;5022025;28;20131;-67
2022/11/26 03:18:21;;;;;;;35.97;17.05;;;7.30;99.90;;;;;;5027074;28;20045;-66
2022/11/26 03:20:46;;;;;;;36.63;16.10;;;7.30;99.90;;;;;;5027548;28;20467;-67
2022/11/26 03:23:12;;;;;;;39.78;17.38;;;7.30;99.90;;;;;;5026365;28;20546;-68
2022/11/26 03:25:38;;;;;;;39.10;16.40;;;7.30;99.90;;;;;;5006959;28;20701;-67
2022/11/26 03:28:04;;;;;;;40.72;16.73;;;7.30;99.90;;;;;;5007185;28;20049;-67
2022/11/26 03:30:30;;;;;;;39.58;16.15;;;7.30;99.90;;;;;;4994014;28;20459;-67
2022/11/26 03:32:55;;;;;;;38.38;16.35;;;7.30;99.90;;;;;;4989933;28;20730;-67
2022/11/26 03:35:21;;;;;;;37.15;16.02;;;7.30;99.90;;;;;;5009982;28;20060;-67
2022/11/26 03:37:47;;;;;;;34.80;15.40;;;7.30;99.90;;;;;;5025946;28;20064;-67
2022/11/26 03:40:15;;;;;;;41.28;17.08;;;7.30;99.90;;;;;;5025663;28;20034;-66
2022/11/26 03:42:41;;;;;;;38.88;17.50;;;7.30;99.90;;;;;;4993604;28;20056;-65
2022/11/26 03:45:07;;;;;;;39.22;15.38;;;7.20;99.90;;;;;;5026814;28;20049;-67
2022/11/26 03:47:33;;;;;;;37.45;16.10;;;7.20;99.90;;;;;;5026608;28;20281;-66
2022/11/26 03:49:59;;;;;;;42.10;16.38;;;7.30;99.90;;;;;;5024903;28;20058;-66
2022/11/26 03:52:24;;;;;;;38.95;16.52;;;7.30;99.90;;;;;;5025761;28;20060;-65
2022/11/26 03:54:50;;;;;;;42.55;15.60;;;7.30;99.90;;;;;;5026874;28;20348;-66
2022/11/26 03:57:16;;;;;;;51.35;17.08;;;7.30;99.90;;;;;;5025543;28;20491;-66
2022/11/26 03:59:42;;;;;;;36.55;15.27;;;7.30;99.90;;;;;;4985182;28;20790;-67
2022/11/26 04:02:09;;;;;;;36.78;14.18;;;7.20;99.90;;;;;;5024190;28;20049;-66
2022/11/26 04:04:35;;;;;;;38.50;15.50;;;7.20;99.90;;;;;;5026639;28;20045;-66
2022/11/26 04:07:00;;;;;;;37.88;16.35;;;7.20;99.90;;;;;;4992689;28;20124;-66
2022/11/26 04:09:28;;;;;;;37.92;15.43;;;7.20;99.90;;;;;;5023042;28;20056;-66
2022/11/26 04:11:53;;;;;;;37.00;15.57;;;7.20;99.90;;;;;;5009543;28;20052;-68
2022/11/26 04:14:20;;;;;;;40.58;14.98;;;7.10;99.90;;;;;;5026137;28;20049;-66
2022/11/26 04:16:45;;;;;;;41.92;15.48;;;7.10;99.90;;;;;;4991786;28;20048;-66
2022/11/26 04:19:11;;;;;;;37.83;14.73;;;7.10;99.90;;;;;;4991715;28;20269;-68
2022/11/26 04:21:37;;;;;;;38.30;14.90;;;7.10;99.90;;;;;;5009189;28;20045;-66
2022/11/26 04:24:03;;;;;;;38.33;13.23;;;7.10;99.90;;;;;;5009536;28;20052;-67
2022/11/26 04:26:28;;;;;;;37.85;15.77;;;7.10;99.90;;;;;;5024759;28;20053;-66
2022/11/26 04:28:54;;;;;;;30.42;13.85;;;7.10;99.90;;;;;;5022434;28;20056;-66
2022/11/26 04:31:20;;;;;;;34.53;14.38;;;7.10;99.90;;;;;;4993055;28;20045;-66
2022/11/26 04:33:45;;;;;;;41.25;14.35;;;7.10;99.90;;;;;;5025172;28;20049;-66
2022/11/26 04:36:11;;;;;;;29.30;13.40;;;7.10;99.90;;;;;;5025149;28;20081;-67
2022/11/26 04:38:37;;;;;;;31.52;15.02;;;7.10;99.90;;;;;;5007611;28;20041;-66
2022/11/26 04:41:03;;;;;;;34.10;13.57;;;7.10;99.90;;;;;;5025277;28;20481;-66
2022/11/26 04:43:28;;;;;;;38.92;14.07;;;7.00;99.90;;;;;;5021545;28;20080;-66
2022/11/26 04:45:54;;;;;;;41.33;14.90;;;7.00;99.90;;;;;;5004244;28;20542;-66
2022/11/26 04:48:20;;;;;;;35.80;13.68;;;7.10;99.90;;;;;;4990492;28;20084;-67
2022/11/26 04:50:46;;;;;;;30.45;14.93;;;7.00;99.90;;;;;;5026365;28;20064;-67
2022/11/26 04:53:12;;;;;;;39.00;15.32;;;7.00;99.90;;;;;;5007336;28;20041;-67
2022/11/26 04:55:38;;;;;;;34.10;15.48;;;7.00;99.90;;;;;;4992527;28;20095;-66
2022/11/26 04:58:03;;;;;;;35.00;14.30;;;7.00;99.90;;;;;;5009120;28;20050;-67
2022/11/26 05:00:29;;;;;;;31.90;14.18;;;7.00;99.90;;;;;;4985380;28;20056;-67
2022/11/26 05:02:55;;;;;;;35.45;15.88;;;7.00;99.90;;;;;;4991423;28;20041;-67
2022/11/26 05:05:21;;;;;;;34.22;14.52;;;7.00;99.90;;;;;;5008605;28;20052;-65
2022/11/26 05:07:46;;;;;;;39.05;14.07;;;7.00;99.90;;;;;;5024158;28;20060;-67
2022/11/26 05:10:12;;;;;;;39.47;16.65;;;7.00;99.90;;;;;;5009134;28;20639;-67
2022/11/26 05:12:38;;;;;;;33.65;13.73;;;7.00;99.90;;;;;;4991746;28;20049;-66
2022/11/26 05:15:04;;;;;;;37.15;15.52;;;7.00;99.90;;;;;;5008247;28;20049;-66
2022/11/26 05:17:30;;;;;;;33.17;14.05;;;7.00;99.90;;;;;;5023501;28;20045;-67
2022/11/26 05:19:57;;;;;;;35.33;15.20;;;7.00;99.90;;;;;;5022637;28;20124;-68
2022/11/26 05:22:24;;;;;;;31.25;14.32;;;6.90;99.90;;;;;;5022020;28;20072;-67
2022/11/26 05:24:51;;;;;;;31.60;14.25;;;6.90;99.90;;;;;;4990516;28;20060;-68
2022/11/26 05:27:17;;;;;;;43.75;15.00;;;6.90;99.90;;;;;;5004864;28;20046;-67
2022/11/26 05:29:43;;;;;;;30.98;12.13;;;6.90;99.90;;;;;;5025156;28;20053;-68
2022/11/26 05:32:08;;;;;;;30.73;14.30;;;6.90;99.90;;;;;;5023663;28;20042;-67
2022/11/26 05:34:34;;;;;;;28.17;13.07;;;6.90;99.90;;;;;;5021852;28;20526;-66
2022/11/26 05:37:00;;;;;;;28.92;13.82;;;6.90;99.90;;;;;;4992047;28;20530;-67
2022/11/26 05:39:26;;;;;;;34.30;13.13;;;6.90;99.90;;;;;;5024100;28;20073;-67
2022/11/26 05:41:51;;;;;;;39.08;13.55;;;6.90;99.90;;;;;;5025544;28;20037;-67
2022/11/26 05:44:17;;;;;;;33.50;13.15;;;6.90;99.90;;;;;;5003254;28;20124;-67
2022/11/26 05:46:43;;;;;;;31.73;14.45;;;6.90;99.90;;;;;;4992547;28;20053;-67
2022/11/26 05:49:10;;;;;;;26.60;13.13;;;6.90;99.90;;;;;;5024538;28;20061;-67
2022/11/26 05:51:35;;;;;;;40.83;14.52;;;6.90;99.90;;;;;;5025307;28;20049;-67
2022/11/26 05:54:01;;;;;;;32.92;12.55;;;6.90;99.90;;;;;;5022570;28;20146;-66
2022/11/26 05:56:27;;;;;;;35.85;12.98;;;6.90;99.90;;;;;;5012332;28;20458;-67
2022/11/26 05:58:52;;;;;;;37.75;12.25;;;6.90;99.90;;;;;;5025461;28;20052;-66
2022/11/26 06:01:18;;;;;;;30.63;12.48;;;6.90;99.90;;;;;;5028083;28;20096;-66
2022/11/26 06:03:44;;;;;;;35.90;12.65;;;6.90;99.90;;;;;;5028131;28;20557;-67
2022/11/26 06:06:10;;;;;;;36.35;12.20;;;6.90;99.90;;;;;;5011971;28;20472;-67
2022/11/26 06:08:36;;;;;;;29.77;12.45;;;6.90;99.90;;;;;;5029352;28;20053;-66
2022/11/26 06:11:02;;;;;;;29.15;12.35;;;6.90;99.90;;;;;;5026921;28;20057;-66
2022/11/26 06:13:28;;;;;;;28.02;11.80;;;6.90;99.90;;;;;;4995060;28;20049;-66
2022/11/26 06:15:55;;;;;;;32.13;12.48;;;7.00;99.90;;;;;;4992653;28;20079;-67
2022/11/26 06:18:20;;;;;;;26.80;11.88;;;6.90;99.90;;;;;;4995015;28;20115;-66
2022/11/26 06:20:46;;;;;;;27.45;11.57;;;6.90;99.90;;;;;;5028020;28;20079;-66
2022/11/26 06:23:12;;;;;;;31.83;11.43;;;6.90;99.90;;;;;;5011504;28;20333;-67
2022/11/26 06:25:41;;;;;;;31.15;12.00;;;6.90;99.90;;;;;;4994422;28;20045;-67
2022/11/26 06:28:09;;;;;;;28.98;11.90;;;6.90;99.90;;;;;;4995450;28;20852;-66
2022/11/26 06:30:35;;;;;;;29.70;12.93;;;6.90;99.90;;;;;;5026360;28;20053;-67
2022/11/26 06:33:02;;;;;;;35.40;12.00;;;6.90;99.90;;;;;;5025545;28;20059;-67
2022/11/26 06:35:28;;;;;;;32.97;11.32;;;6.90;99.90;;;;;;5020109;28;20128;-67
2022/11/26 06:37:55;;;;;;;33.53;12.98;;;6.90;99.90;;;;;;5027577;28;20144;-67
2022/11/26 06:40:21;;;;;;;33.17;12.63;;;6.90;99.90;;;;;;5007895;28;20107;-67
2022/11/26 06:42:49;;;;;;;35.97;11.52;;;6.90;99.90;;;;;;4993412;28;20068;-68
2022/11/26 06:45:15;;;;;;;;;;;6.90;99.90;;;;;;5007322;28;20348;-68
2022/11/26 06:47:41;;;;;;;31.73;11.73;;;6.90;99.90;;;;;;5009690;28;19920;-67
2022/11/26 06:50:07;;;;;;;30.63;11.85;;;6.90;99.90;;;;;;4993569;28;20060;-66
2022/11/26 06:52:33;;;;;;;29.25;11.18;;;6.90;99.90;;;;;;5023073;28;20063;-67
2022/11/26 06:54:59;;;;;;;29.45;11.75;;;6.80;99.90;;;;;;5013741;28;20048;-67
2022/11/26 06:57:26;;;;;;;32.90;10.77;;;6.90;99.90;;;;;;5036128;28;20052;-66
2022/11/26 06:59:52;;;;;;;28.10;10.13;;;6.80;99.90;;;;;;5011639;28;20419;-66
2022/11/26 07:02:18;;;;;;;26.60;11.20;;;6.80;99.90;;;;;;4979054;28;20034;-67
2022/11/26 07:04:44;;;;;;;29.13;10.50;;;6.80;99.90;;;;;;5011294;28;20572;-67
2022/11/26 07:07:10;;;;;;;29.55;10.40;;;6.70;99.90;;;;;;5005327;28;20056;-67
2022/11/26 07:09:35;;;;;;;24.55;10.63;;;6.70;99.90;;;;;;5014509;28;20076;-66
2022/11/26 07:12:01;;;;;;;27.95;11.07;;;6.70;99.90;;;;;;4998260;28;20531;-66
2022/11/26 07:14:27;;;;;;;38.90;11.80;;;6.70;99.90;;;;;;4991078;28;20081;-67
2022/11/26 07:16:53;;;;;;;26.15;9.98;;;6.70;99.90;;;;;;5014028;28;20041;-66
2022/11/26 07:19:19;;;;;;;31.67;10.65;;;6.70;99.90;;;;;;5013970;28;20432;-66
2022/11/26 07:21:44;;;;;;;27.33;9.82;;;6.70;99.90;;;;;;4996754;28;20049;-67
2022/11/26 07:24:10;;;;;;;27.80;10.00;;;6.70;99.90;;;;;;4996596;28;20129;-67
2022/11/26 07:26:36;;;;;;;35.17;11.18;;;6.80;99.90;;;;;;5014064;28;20077;-67
2022/11/26 07:29:02;;;;;;;29.50;9.95;;;6.70;99.90;;;;;;5009480;28;20081;-68
2022/11/26 07:31:27;;;;;;;32.03;9.90;;;6.70;99.90;;;;;;5029386;28;20445;-67
2022/11/26 07:33:53;;;;;;;34.28;9.63;;;6.70;99.90;;;;;;4997455;28;20045;-68
2022/11/26 07:36:21;;;;;;;28.10;9.73;;;6.70;99.90;;;;;;4997399;28;20049;-68
2022/11/26 07:38:47;;;;;;;27.03;10.10;;;6.70;99.90;;;;;;5010015;28;20390;-67
2022/11/26 07:41:15;;;;;;;31.55;10.82;;;6.70;99.90;;;;;;4997261;28;20276;-68
2022/11/26 07:43:41;;;;;;;31.13;9.63;;;6.70;99.90;;;;;;5028789;28;20048;-68
2022/11/26 07:46:08;;;;;;;36.45;11.02;;;6.70;99.90;;;;;;4995754;28;20080;-67
2022/11/26 07:48:34;;;;;;;27.55;11.65;;;6.70;99.90;;;;;;4991556;28;20053;-68
2022/11/26 07:51:00;;;;;;;24.85;8.70;;;6.70;99.90;;;;;;5013856;28;20045;-67
2022/11/26 07:53:29;;;;;;;26.77;9.52;;;6.70;99.90;;;;;;4996268;28;20053;-69
2022/11/26 07:55:57;;;;;;;32.38;9.95;;;6.80;99.90;;;;;;4996979;28;20411;-68
2022/11/26 07:58:22;;;;;;;28.60;10.27;;;6.80;99.90;;;;;;4995590;28;20124;-66
2022/11/26 08:00:48;;;;;;;26.92;10.65;;;6.80;99.90;;;;;;4996426;28;20120;-68
2022/11/26 08:03:14;;;;;;;30.48;10.65;;;6.80;99.90;;;;;;4993081;28;20876;-68
2022/11/26 08:05:41;;;;;;;25.98;9.57;;;6.90;99.90;;;;;;5028307;28;20041;-68
2022/11/26 08:08:07;;;;;;;26.45;10.13;;;6.90;99.90;;;;;;4996138;28;20498;-68
2022/11/26 08:10:33;;;;;;;23.42;10.13;;;6.90;99.90;;;;;;4994040;28;20111;-67
2022/11/26 08:13:00;;;;;;;30.75;11.77;;;6.90;99.90;;;;;;4995493;28;20077;-68
2022/11/26 08:15:27;;;;;;;26.83;10.65;;;6.90;99.90;;;;;;5028172;28;20115;-67
2022/11/26 08:17:56;;;;;;;23.92;10.20;;;6.90;99.90;;;;;;5029592;28;20530;-68
2022/11/26 08:20:22;;;;;;;23.15;9.05;;;6.90;99.90;;;;;;4991420;28;20128;-67
2022/11/26 08:22:48;;;;;;;26.52;9.07;;;6.90;99.90;;;;;;4993485;28;20124;-66
2022/11/26 08:25:14;;;;;;;31.42;9.15;;;7.00;99.90;;;;;;4996303;28;20057;-67
2022/11/26 08:27:40;;;;;;;30.60;9.50;;;7.00;99.90;;;;;;4994578;28;20088;-67
2022/11/26 08:30:06;;;;;;;27.88;10.70;;;7.10;99.90;;;;;;5012487;28;20052;-67
2022/11/26 08:32:32;;;;;;;28.27;10.20;;;7.10;99.90;;;;;;5011990;28;20231;-68
2022/11/26 08:34:58;;;;;;;32.78;10.30;;;7.10;99.90;;;;;;4996300;28;20135;-67
2022/11/26 08:37:24;;;;;;;26.33;10.77;;;7.10;99.90;;;;;;5013014;28;20077;-66
2022/11/26 08:39:50;;;;;;;23.92;10.00;;;7.10;99.90;;;;;;4996923;28;20045;-68
2022/11/26 08:42:16;;;;;;;24.25;10.90;;;7.20;99.90;;;;;;5011734;28;20045;-68
2022/11/26 08:44:41;;;;;;;30.15;10.60;;;7.20;99.90;;;;;;5024850;28;20056;-67
2022/11/26 08:47:08;;;;;;;32.50;11.43;;;7.10;99.90;;;;;;4996255;28;20056;-68
2022/11/26 08:49:33;;;;;;;33.10;11.18;;;7.20;99.90;;;;;;4976141;28;20049;-68
2022/11/26 08:51:59;;;;;;;27.90;11.05;;;7.20;99.90;;;;;;5026481;28;20053;-68
2022/11/26 08:54:25;;;;;;;28.75;10.10;;;7.20;99.90;;;;;;5027774;28;20053;-68
2022/11/26 08:56:51;;;;;;;28.42;10.57;;;7.20;99.90;;;;;;5011800;28;20049;-67
2022/11/26 08:59:18;;;;;;;32.00;11.60;;;7.30;99.90;;;;;;5021469;28;20135;-67
2022/11/26 09:01:44;;;;;;;31.58;11.95;;;7.30;99.90;;;;;;5019135;28;20068;-67
2022/11/26 09:04:10;;;;;;;26.15;10.68;;;7.30;99.90;;;;;;4992089;28;20045;-67
2022/11/26 09:06:36;;;;;;;31.27;10.25;;;7.40;99.90;;;;;;5022815;28;20380;-67
2022/11/26 09:09:16;;;;;;;38.13;16.10;;;7.50;99.90;;;;;;5025332;28;20060;-67
2022/11/26 09:11:48;;;;;;;32.80;12.93;;;7.60;99.90;;;;;;5028446;28;20152;-66
2022/11/26 09:14:15;;;;;;;29.58;12.38;;;7.60;99.90;;;;;;5027250;28;20467;-67
2022/11/26 09:16:41;;;;;;;30.60;13.20;;;7.70;99.90;;;;;;5007970;28;20115;-65
2022/11/26 09:19:07;;;;;;;30.23;11.32;;;7.60;99.90;;;;;;4995672;28;20049;-67
2022/11/26 09:21:34;;;;;;;33.45;11.57;;;7.60;99.90;;;;;;4993680;28;20061;-67
2022/11/26 09:24:00;;;;;;;37.83;11.93;;;7.70;99.90;;;;;;5023728;28;20041;-67
2022/11/26 09:26:26;;;;;;;34.45;10.55;;;7.70;99.90;;;;;;5011615;28;20045;-67
2022/11/26 09:28:51;;;;;;;26.25;9.95;;;7.70;99.90;;;;;;4995282;28;20068;-66
2022/11/26 09:31:17;;;;;;;30.55;11.02;;;7.80;99.90;;;;;;4986827;28;20128;-66
2022/11/26 09:33:43;;;;;;;32.85;10.25;;;7.90;99.90;;;;;;5011319;28;20041;-67
2022/11/26 09:36:12;;;;;;;27.75;10.48;;;8.00;99.90;;;;;;5011469;28;20064;-66
2022/11/26 09:38:39;;;;;;;26.05;9.75;;;8.00;99.90;;;;;;5011397;28;20119;-65
2022/11/26 09:41:29;;;;;;;25.95;9.90;;;8.20;99.90;;;;;;5027073;28;20053;-66
2022/11/26 09:44:13;;;;;;;26.98;9.30;;;8.30;99.90;;;;;;5027467;28;20052;-66
2022/11/26 09:47:05;;;;;;;35.75;9.30;;;8.60;99.90;;;;;;4993532;28;20563;-66
2022/11/26 09:49:34;;;;;;;24.77;9.55;;;8.70;99.90;;;;;;4994502;28;20048;-68
2022/11/26 09:52:02;;;;;;;25.08;9.52;;;8.60;99.90;;;;;;4996087;28;20042;-66
2022/11/26 09:54:32;;;;;;;27.13;9.27;;;8.60;99.90;;;;;;4987983;28;20123;-66
2022/11/26 09:57:33;;;;;;;27.55;9.23;;;8.60;99.90;;;;;;5027105;28;20625;-66
2022/11/26 09:59:59;;;;;;;29.25;10.20;;;8.60;99.90;;;;;;5026797;28;20169;-66
2022/11/26 10:02:25;;;;;;;28.35;8.70;;;8.50;99.90;;;;;;5028385;28;20053;-67
2022/11/26 10:04:51;;;;;;;21.83;8.90;;;8.40;99.90;;;;;;5028030;28;20042;-66
2022/11/26 10:07:43;;;;;;;28.20;9.20;;;8.70;99.90;;;;;;5011042;28;20056;-67
2022/11/26 10:10:23;;;;;;;22.55;8.48;;;9.00;99.90;;;;;;5026562;28;20053;-66
2022/11/26 10:12:55;;;;;;;29.75;10.18;;;9.00;99.90;;;;;;5011345;28;20572;-70
2022/11/26 10:15:50;;;;;;;29.48;10.05;;;9.20;99.90;;;;;;5007530;28;20069;-73
2022/11/26 10:18:55;;;;;;;21.63;8.95;;;9.00;99.90;;;;;;5020908;28;20041;-70
2022/11/26 10:21:45;;;;;;;38.17;10.32;;;9.20;99.90;;;;;;5023949;28;20137;-70
2022/11/26 10:24:29;;;;;;;28.15;10.05;;;9.50;99.90;;;;;;5023242;28;20382;-70
2022/11/26 10:26:56;;;;;;;23.92;9.15;;;9.50;99.90;;;;;;5005740;28;20081;-70
2022/11/26 10:29:37;;;;;;;28.48;9.98;;;9.70;99.90;;;;;;4993521;28;20050;-71
2022/11/26 10:32:14;;;;;;;28.15;9.20;;;9.80;99.90;;;;;;5023503;28;20142;-66
2022/11/26 10:34:55;;;;;;;27.13;9.30;;;10.00;99.90;;;;;;5010869;28;20148;-66
2022/11/26 10:37:22;;;;;;;27.38;10.50;;;10.30;99.90;;;;;;5026166;28;20045;-71
2022/11/26 10:39:48;;;;;;;22.38;8.68;;;10.70;99.90;;;;;;5013121;28;20037;-67
2022/11/26 10:42:21;;;;;;;22.77;8.60;;;10.80;99.90;;;;;;4998849;28;20037;-68
2022/11/26 10:44:51;;;;;;;27.63;8.93;;;11.00;99.90;;;;;;5015043;28;20751;-66
2022/11/26 10:47:26;;;;;;;25.20;9.60;;;11.20;99.90;;;;;;4998276;28;20049;-66
2022/11/26 10:49:54;;;;;;;18.42;8.15;;;11.30;99.90;;;;;;5031758;28;20103;-65
2022/11/26 10:52:27;;;;;;;20.70;7.80;;;10.60;99.90;;;;;;4998201;28;20041;-68
2022/11/26 10:55:25;;;;;;;25.27;9.27;;;10.60;99.90;;;;;;5010283;28;20045;-66
2022/11/26 10:58:12;;;;;;;28.48;9.63;;;10.40;99.90;;;;;;5029857;28;20191;-67
2022/11/26 11:01:05;;;;;;;26.55;9.75;;;10.30;99.90;;;;;;5016307;28;20437;-72
2022/11/26 11:03:35;;;;;;;30.55;9.93;;;10.90;99.90;;;;;;5016932;28;20064;-73
2022/11/26 11:06:19;;;;;;;23.85;9.57;;;11.20;99.90;;;;;;4996163;28;20058;-71
2022/11/26 11:08:49;;;;;;;25.33;10.48;;;11.40;99.90;;;;;;5031701;28;20092;-72
2022/11/26 11:11:27;;;;;;;26.95;9.70;;;10.80;99.90;;;;;;4997327;28;20084;-69
2022/11/26 11:13:53;;;;;;;29.15;9.77;;;11.00;99.90;;;;;;4997630;28;20046;-71
2022/11/26 11:16:42;;;;;;;24.13;9.20;;;10.90;99.90;;;;;;5031399;28;20053;-73
2022/11/26 11:19:20;;;;;;;27.20;10.07;;;10.80;99.90;;;;;;5028403;28;20126;-72
2022/11/26 11:21:46;;;;;;;29.17;9.90;;;10.20;99.90;;;;;;4980603;28;20050;-66
2022/11/26 11:24:22;;;;;;;26.77;10.57;;;9.80;99.90;;;;;;4995692;28;20388;-66
2022/11/26 11:26:55;;;;;;;26.33;9.93;;;9.70;99.90;;;;;;4979526;28;20041;-66
2022/11/26 11:29:36;;;;;;;26.35;10.27;;;9.70;99.90;;;;;;5023505;28;20045;-66
2022/11/26 11:32:04;;;;;;;27.63;11.52;;;9.50;99.90;;;;;;5009371;28;20049;-65
2022/11/26 11:34:41;;;;;;;29.48;11.10;;;9.40;99.90;;;;;;5013238;28;20799;-66
2022/11/26 11:37:19;;;;;;;28.33;10.82;;;9.40;99.90;;;;;;4977691;28;20061;-65
2022/11/26 11:40:00;;;;;;;27.42;11.27;;;9.40;99.90;;;;;;5021665;28;20037;-67
2022/11/26 11:42:31;;;;;;;35.15;12.23;;;9.30;99.90;;;;;;5008367;28;20049;-66
2022/11/26 11:44:58;;;;;;;30.90;11.02;;;9.40;99.90;;;;;;4981949;28;20041;-65
2022/11/26 11:47:35;;;;;;;32.40;11.35;;;9.40;99.90;;;;;;5013838;28;20091;-67
2022/11/26 11:50:23;;;;;;;31.95;12.57;;;9.40;99.90;;;;;;5013215;28;20042;-65
2022/11/26 11:53:24;;;;;;;32.40;11.45;;;9.50;99.90;;;;;;5028024;28;20041;-66
2022/11/26 11:56:09;;;;;;;29.48;10.68;;;9.40;99.90;;;;;;5022408;28;20139;-67
2022/11/26 11:58:43;;;;;;;29.00;10.77;;;9.60;99.90;;;;;;5024390;28;20077;-67
2022/11/26 12:01:15;;;;;;;30.15;10.82;;;9.60;99.90;;;;;;5029827;28;20095;-66
2022/11/26 12:04:08;;;;;;;28.08;10.02;;;9.50;99.90;;;;;;5030486;28;20142;-68
2022/11/26 12:07:13;;;;;;;33.38;10.30;;;9.50;99.90;;;;;;5009615;28;20526;-67
2022/11/26 12:10:24;;;;;;;34.20;11.95;;;9.40;99.90;;;;;;5028139;28;20049;-66
2022/11/26 12:12:55;;;;;;;35.67;10.75;;;9.40;99.90;;;;;;5012437;28;20056;-66
2022/11/26 12:15:27;;;;;;;28.38;11.13;;;9.30;99.90;;;;;;4996734;28;20633;-66
2022/11/26 12:17:59;;;;;;;31.50;11.60;;;9.30;99.90;;;;;;4997638;28;20379;-66
2022/11/26 12:20:54;;;;;;;27.23;10.52;;;9.30;99.90;;;;;;4979471;28;20049;-65
2022/11/26 12:23:31;;;;;;;33.30;10.98;;;9.20;99.90;;;;;;5012542;28;20045;-66
2022/11/26 12:26:11;;;;;;;30.50;11.07;;;9.30;99.90;;;;;;5023411;28;20077;-67
2022/11/26 12:28:52;;;;;;;34.60;11.45;;;9.20;99.90;;;;;;5013086;28;20482;-67
2022/11/26 12:31:30;;;;;;;30.65;12.13;;;9.20;99.90;;;;;;5013041;28;20052;-66
2022/11/26 12:34:05;;;;;;;25.88;11.68;;;9.20;99.90;;;;;;5027986;28;20187;-67
2022/11/26 12:36:34;;;;;;;33.40;12.63;;;9.40;99.90;;;;;;5026376;28;20156;-66
2022/11/26 12:39:16;;;;;;;31.13;13.05;;;9.60;99.90;;;;;;5012830;28;20050;-67
2022/11/26 12:42:14;;;;;;;34.40;12.13;;;9.70;99.90;;;;;;5007625;28;20073;-66
2022/11/26 12:44:40;;;;;;;32.30;12.60;;;10.00;99.90;;;;;;5015480;28;20841;-68
2022/11/26 12:47:15;;;;;;;28.05;11.25;;;10.30;99.90;;;;;;4991690;28;20046;-67
2022/11/26 12:50:10;;;;;;;26.33;11.45;;;10.30;99.90;;;;;;5027142;28;20056;-66
2022/11/26 12:52:54;;;;;;;27.17;11.32;;;10.40;99.90;;;;;;5025623;28;20052;-68